Time;durP1;ratioP1;P1;durP2;ratioP2;P2;SDS_P1;SDS_P2;PMS_P1;PMS_P2;Temp;Humidity;BMP_temperature;BMP_pressure;BME280_temperature;BME280_humidity;BME280_pressure;Samples;Min_cycle;Max_cycle;Signal;HPM_P1;HPM_P2
2022/11/01 00:02:02;;;;;;;29.95;19.08;;;12.50;99.90;;;;;;5118244;27;20055;-50
2022/11/01 00:04:28;;;;;;;28.13;18.67;;;12.50;99.90;;;;;;5135444;27;20057;-51
2022/11/01 00:06:53;;;;;;;31.13;20.35;;;12.50;99.90;;;;;;5135830;27;20047;-54
2022/11/01 00:09:20;;;;;;;23.85;18.40;;;12.50;99.90;;;;;;5124478;27;20042;-49
2022/11/01 00:11:46;;;;;;;25.73;19.13;;;12.60;99.90;;;;;;5136278;27;20130;-51
2022/11/01 00:14:16;;;;;;;28.30;18.90;;;12.60;99.90;;;;;;5136924;27;20130;-51
2022/11/01 00:16:42;;;;;;;25.98;15.77;;;12.70;99.90;;;;;;5136702;27;20047;-48
2022/11/01 00:19:09;;;;;;;24.35;18.88;;;12.70;99.90;;;;;;5136214;27;20287;-52
2022/11/01 00:21:35;;;;;;;28.38;19.20;;;12.70;99.90;;;;;;5136666;27;20473;-50
2022/11/01 00:24:00;;;;;;;29.08;18.17;;;12.70;99.90;;;;;;5135796;27;20085;-51
2022/11/01 00:26:26;;;;;;;24.23;17.02;;;12.70;99.90;;;;;;5118696;27;20122;-49
2022/11/01 00:28:53;;;;;;;24.60;17.92;;;12.80;99.90;;;;;;5117811;27;20046;-51
2022/11/01 00:31:20;;;;;;;29.70;18.05;;;12.80;99.90;;;;;;5136444;27;20043;-52
2022/11/01 00:33:46;;;;;;;26.15;16.92;;;12.80;99.90;;;;;;5136850;27;20046;-54
2022/11/01 00:36:11;;;;;;;25.08;17.45;;;12.80;99.90;;;;;;5135798;27;20504;-52
2022/11/01 00:38:37;;;;;;;21.30;17.08;;;12.80;99.90;;;;;;5136571;27;20043;-49
2022/11/01 00:41:03;;;;;;;20.58;16.98;;;12.80;99.90;;;;;;5136516;27;20506;-49
2022/11/01 00:43:31;;;;;;;25.30;16.25;;;12.80;99.90;;;;;;5136628;27;20691;-45
2022/11/01 00:45:57;;;;;;;23.67;16.67;;;12.70;99.90;;;;;;5117706;27;20114;-44
2022/11/01 00:48:22;;;;;;;21.60;16.33;;;12.80;99.90;;;;;;5137044;27;20050;-44
2022/11/01 00:50:48;;;;;;;21.15;15.73;;;12.80;99.90;;;;;;5136081;27;20038;-55
2022/11/01 00:53:14;;;;;;;23.38;16.23;;;12.80;99.90;;;;;;5136682;27;20058;-52
2022/11/01 00:55:40;;;;;;;25.10;16.75;;;12.80;99.90;;;;;;5136652;27;20058;-50
2022/11/01 00:58:06;;;;;;;28.05;15.90;;;12.90;99.90;;;;;;5137134;27;20043;-53
2022/11/01 01:00:32;;;;;;;22.60;16.10;;;12.90;99.90;;;;;;5137217;27;20061;-49
2022/11/01 01:02:58;;;;;;;25.33;15.35;;;12.90;99.90;;;;;;5135897;27;20396;-47
2022/11/01 01:05:23;;;;;;;20.55;14.10;;;13.00;99.90;;;;;;5131890;27;20551;-44
2022/11/01 01:07:49;;;;;;;22.95;14.20;;;13.00;99.90;;;;;;5134783;27;20042;-51
2022/11/01 01:10:15;;;;;;;19.58;13.52;;;13.10;99.90;;;;;;5127668;27;20242;-49
2022/11/01 01:12:40;;;;;;;19.33;13.55;;;13.10;99.90;;;;;;5136120;27;20615;-50
2022/11/01 01:15:07;;;;;;;22.90;13.13;;;13.20;99.90;;;;;;5118566;27;20057;-49
2022/11/01 01:17:33;;;;;;;20.65;12.63;;;13.20;99.90;;;;;;5136701;27;20038;-48
2022/11/01 01:19:59;;;;;;;18.38;12.50;;;13.20;99.90;;;;;;5136186;27;20549;-49
2022/11/01 01:22:25;;;;;;;19.80;12.73;;;13.20;99.90;;;;;;5136045;27;20051;-51
2022/11/01 01:24:51;;;;;;;21.20;13.27;;;13.20;99.90;;;;;;5136463;27;20551;-51
2022/11/01 01:27:17;;;;;;;19.83;12.18;;;13.30;99.90;;;;;;5135301;27;20057;-52
2022/11/01 01:29:44;;;;;;;17.38;12.20;;;13.20;99.90;;;;;;5135675;27;20399;-46
2022/11/01 01:32:21;;;;;;;18.10;12.30;;;13.20;99.90;;;;;;5116069;27;20070;-49
2022/11/01 01:34:47;;;;;;;20.42;12.40;;;13.20;99.90;;;;;;5135926;27;20057;-51
2022/11/01 01:37:16;;;;;;;20.73;11.30;;;13.20;99.90;;;;;;5138626;27;20125;-44
2022/11/01 01:39:42;;;;;;;22.50;12.02;;;13.20;99.90;;;;;;5121158;27;20043;-52
2022/11/01 01:42:28;;;;;;;19.90;11.77;;;13.20;99.90;;;;;;5139835;27;20468;-53
2022/11/01 01:44:54;;;;;;;20.63;11.63;;;13.20;99.90;;;;;;5140054;27;20053;-44
2022/11/01 01:47:28;;;;;;;18.65;12.52;;;13.20;99.90;;;;;;5119963;27;20039;-44
2022/11/01 01:50:15;;;;;;;24.33;11.95;;;13.20;99.90;;;;;;5139827;27;20476;-44
2022/11/01 01:53:13;;;;;;;20.25;11.57;;;13.20;99.90;;;;;;5138942;27;20094;-52
2022/11/01 01:55:59;;;;;;;31.25;13.05;;;13.20;99.90;;;;;;5033413;28;20053;-49
2022/11/01 01:58:31;;;;;;;18.90;13.00;;;13.20;99.90;;;;;;5018877;28;20065;-48
2022/11/01 02:00:57;;;;;;;19.98;12.07;;;13.20;99.90;;;;;;5033957;28;20107;-52
2022/11/01 02:03:28;;;;;;;18.85;10.60;;;13.20;99.90;;;;;;5013235;28;20056;-47
2022/11/01 02:06:28;;;;;;;19.25;11.88;;;13.20;99.90;;;;;;5030910;28;20521;-48
2022/11/01 02:08:56;;;;;;;16.23;10.65;;;13.20;99.90;;;;;;5035301;28;20064;-46
2022/11/01 02:11:22;;;;;;;19.40;11.13;;;13.30;99.90;;;;;;5021123;28;20060;-51
2022/11/01 02:13:49;;;;;;;13.63;9.52;;;13.30;99.90;;;;;;5034144;28;20375;-52
2022/11/01 02:16:43;;;;;;;15.95;10.73;;;13.30;99.90;;;;;;5034145;28;20084;-45
2022/11/01 02:19:21;;;;;;;21.55;10.98;;;13.40;99.90;;;;;;5034233;28;20263;-43
2022/11/01 02:22:00;;;;;;;15.10;10.57;;;13.40;99.90;;;;;;5017264;28;20053;-47
2022/11/01 02:24:45;;;;;;;17.95;10.48;;;13.40;99.90;;;;;;5034815;28;20052;-48
2022/11/01 02:27:24;;;;;;;17.75;11.50;;;13.40;99.90;;;;;;5017156;28;20061;-49
2022/11/01 02:30:12;;;;;;;17.23;10.88;;;13.40;99.90;;;;;;5017654;28;20057;-53
2022/11/01 02:32:46;;;;;;;17.20;9.88;;;13.50;99.90;;;;;;5069095;27;20058;-53
2022/11/01 02:35:57;;;;;;;17.30;10.13;;;13.40;99.90;;;;;;5134870;27;20046;-52
2022/11/01 02:38:54;;;;;;;18.23;10.27;;;13.50;99.90;;;;;;5033535;28;20064;-54
2022/11/01 02:41:24;;;;;;;14.77;9.15;;;13.60;99.90;;;;;;4953715;28;20101;-46
2022/11/01 02:44:01;;;;;;;14.18;10.70;;;13.60;99.90;;;;;;4954918;28;20058;-47
2022/11/01 02:49:18;;;;;;;12.73;10.02;;;13.80;99.90;;;;;;4938295;28;20070;-52
2022/11/01 02:51:45;;;;;;;16.70;9.98;;;13.90;99.90;;;;;;4954945;28;20453;-51
2022/11/01 02:54:21;;;;;;;14.98;9.20;;;13.90;99.90;;;;;;4955536;28;20191;-51
2022/11/01 02:56:46;;;;;;;15.60;9.20;;;14.00;99.90;;;;;;4942443;28;20058;-49
2022/11/01 02:59:41;;;;;;;15.93;8.95;;;13.90;99.90;;;;;;4938956;28;20081;-50
2022/11/01 03:02:13;;;;;;;15.43;9.63;;;14.00;99.90;;;;;;4952428;28;20065;-51
2022/11/01 03:04:38;;;;;;;13.57;9.30;;;14.00;99.90;;;;;;4952360;28;20137;-51
2022/11/01 03:07:10;;;;;;;15.18;9.10;;;14.00;99.90;;;;;;4936808;28;20054;-49
2022/11/01 03:09:37;;;;;;;15.93;8.85;;;14.10;99.90;;;;;;4938408;28;20050;-48
2022/11/01 03:12:06;;;;;;;12.30;9.55;;;14.10;99.90;;;;;;4937707;28;20536;-46
2022/11/01 03:14:47;;;;;;;14.68;8.88;;;14.10;99.90;;;;;;4991937;28;20550;-51
2022/11/01 03:17:19;;;;;;;14.48;8.63;;;14.10;99.90;;;;;;5020688;28;20049;-47
2022/11/01 03:19:55;;;;;;;9.60;8.55;;;14.10;99.90;;;;;;5127551;27;20118;-51
2022/11/01 03:22:27;;;;;;;14.38;9.40;;;14.10;99.90;;;;;;5137116;27;20049;-52
2022/11/01 03:28:30;;;;;;;14.18;9.88;;;14.10;99.90;;;;;;5128762;27;20050;-47
2022/11/01 03:31:05;;;;;;;15.75;8.55;;;14.00;99.90;;;;;;5125234;27;20046;-52
2022/11/01 03:33:33;;;;;;;12.45;8.68;;;14.00;99.90;;;;;;5136972;27;20046;-51
2022/11/01 03:36:07;;;;;;;20.35;8.93;;;14.00;99.90;;;;;;5137523;27;20046;-46
2022/11/01 03:38:36;;;;;;;14.35;9.82;;;14.10;99.90;;;;;;5137662;27;20049;-50
2022/11/01 03:41:05;;;;;;;18.13;9.02;;;14.10;99.90;;;;;;5136895;27;20389;-51
2022/11/01 03:43:33;;;;;;;15.50;8.90;;;14.20;99.90;;;;;;5136798;27;20053;-53
2022/11/01 03:45:58;;;;;;;17.33;9.02;;;14.20;99.90;;;;;;5136615;27;20058;-49
2022/11/01 03:48:24;;;;;;;14.57;9.52;;;14.30;99.90;;;;;;5136726;27;20054;-49
2022/11/01 03:50:52;;;;;;;14.43;8.65;;;14.30;99.90;;;;;;5117522;27;20564;-51
2022/11/01 03:53:18;;;;;;;17.98;8.55;;;14.30;99.90;;;;;;5100649;27;20098;-52
2022/11/01 03:55:44;;;;;;;13.35;9.10;;;14.40;99.90;;;;;;5136282;27;20046;-46
2022/11/01 03:58:10;;;;;;;13.85;8.93;;;14.40;99.90;;;;;;5136411;27;20046;-49
2022/11/01 04:00:43;;;;;;;15.13;9.25;;;14.50;99.90;;;;;;5135843;27;20057;-51
2022/11/01 04:03:09;;;;;;;;;;;14.40;99.90;;;;;;5137770;27;20038;-47
2022/11/01 04:05:37;;;;;;;15.85;8.50;;;14.40;99.90;;;;;;5133216;27;20390;-48
2022/11/01 04:08:04;;;;;;;14.35;9.50;;;14.50;99.90;;;;;;5113858;27;20043;-49
2022/11/01 04:10:30;;;;;;;12.80;8.55;;;14.50;99.90;;;;;;5129627;27;20042;-50
2022/11/01 04:12:57;;;;;;;10.40;8.57;;;14.50;99.90;;;;;;5137099;27;20047;-53
2022/11/01 04:21:10;;;;;;;11.02;8.13;;;14.50;99.90;;;;;;5136942;27;20047;-48
2022/11/01 04:23:35;;;;;;;14.60;8.85;;;14.50;99.90;;;;;;5136674;27;20448;-51
2022/11/01 04:26:02;;;;;;;10.93;8.43;;;14.50;99.90;;;;;;5136710;27;20046;-48
2022/11/01 04:28:27;;;;;;;15.40;8.95;;;14.40;99.90;;;;;;5136717;27;20449;-48
2022/11/01 04:30:53;;;;;;;11.45;7.57;;;14.40;99.90;;;;;;5137011;27;20054;-45
2022/11/01 04:33:19;;;;;;;16.60;8.40;;;14.40;99.90;;;;;;5136858;27;20054;-47
2022/11/01 04:35:45;;;;;;;15.43;7.82;;;14.50;99.90;;;;;;5136292;27;20050;-44
2022/11/01 04:38:12;;;;;;;19.35;8.18;;;14.50;99.90;;;;;;5136442;27;20047;-48
2022/11/01 04:40:39;;;;;;;11.75;7.38;;;14.60;99.90;;;;;;5136086;27;20149;-54
2022/11/01 04:43:04;;;;;;;10.65;8.48;;;14.60;99.90;;;;;;5136123;27;20103;-46
2022/11/01 04:45:30;;;;;;;14.95;7.40;;;14.60;99.90;;;;;;5136031;27;20479;-49
2022/11/01 04:48:12;;;;;;;13.65;8.43;;;14.70;99.90;;;;;;5117866;27;20046;-51
2022/11/01 04:50:38;;;;;;;10.02;7.00;;;14.70;99.90;;;;;;5110582;28;20526;-56
2022/11/01 04:53:04;;;;;;;11.05;6.55;;;14.70;99.90;;;;;;5134907;27;20484;-46
2022/11/01 04:55:30;;;;;;;10.43;6.30;;;14.70;99.90;;;;;;5136078;27;20496;-48
2022/11/01 04:57:56;;;;;;;8.98;5.20;;;14.80;99.90;;;;;;5136179;27;20069;-56
2022/11/01 05:00:21;;;;;;;8.35;4.82;;;14.80;99.90;;;;;;5136092;27;20047;-55
2022/11/01 05:02:48;;;;;;;10.38;5.10;;;14.70;99.90;;;;;;5115549;27;20065;-50
2022/11/01 05:05:14;;;;;;;9.68;4.47;;;14.80;99.90;;;;;;5130831;27;20071;-52
2022/11/01 05:07:39;;;;;;;11.50;5.75;;;14.70;99.90;;;;;;5134507;27;20552;-48
2022/11/01 05:10:06;;;;;;;8.32;5.07;;;14.80;99.90;;;;;;5126784;27;20578;-52
2022/11/01 05:12:32;;;;;;;10.93;4.93;;;14.70;99.90;;;;;;5138630;27;20057;-54
2022/11/01 05:14:58;;;;;;;10.25;4.25;;;14.70;99.90;;;;;;5139537;27;20047;-46
2022/11/01 05:17:23;;;;;;;6.43;4.28;;;14.70;99.90;;;;;;5139403;27;20051;-49
2022/11/01 05:19:49;;;;;;;6.45;3.80;;;14.60;99.90;;;;;;5139398;27;20047;-49
2022/11/01 05:22:15;;;;;;;6.50;2.65;;;14.60;99.90;;;;;;5139149;27;20162;-50
2022/11/01 05:24:40;;;;;;;7.95;3.42;;;14.50;99.90;;;;;;5139616;27;20463;-51
2022/11/01 05:27:06;;;;;;;6.38;3.38;;;14.40;99.90;;;;;;5140426;27;20070;-50
2022/11/01 05:29:32;;;;;;;7.05;2.72;;;14.30;99.90;;;;;;5139593;27;20452;-52
2022/11/01 05:31:58;;;;;;;10.05;3.00;;;14.30;99.90;;;;;;5120571;27;20061;-53
2022/11/01 05:34:23;;;;;;;6.82;3.80;;;14.30;99.90;;;;;;5140002;27;20516;-44
2022/11/01 05:36:49;;;;;;;6.90;3.38;;;14.30;99.90;;;;;;5139360;27;20483;-51
2022/11/01 05:39:14;;;;;;;5.40;2.40;;;14.20;99.90;;;;;;5139896;27;20039;-51
2022/11/01 05:41:40;;;;;;;6.72;2.60;;;14.20;99.90;;;;;;5138806;27;20137;-49
2022/11/01 05:44:06;;;;;;;4.75;2.03;;;14.10;99.90;;;;;;5134294;27;20246;-46
2022/11/01 05:46:32;;;;;;;9.35;2.60;;;13.90;99.90;;;;;;5127297;27;20051;-56
2022/11/01 05:48:57;;;;;;;5.50;1.95;;;13.80;99.90;;;;;;5111241;27;20351;-48
2022/11/01 05:51:23;;;;;;;8.73;1.65;;;13.80;99.90;;;;;;5138911;27;20377;-46
2022/11/01 05:53:49;;;;;;;8.05;2.00;;;13.70;99.90;;;;;;5139398;27;20049;-49
2022/11/01 05:56:16;;;;;;;5.30;1.70;;;13.60;99.90;;;;;;5138830;27;20061;-51
2022/11/01 05:58:42;;;;;;;4.97;1.55;;;13.60;99.90;;;;;;5139324;27;20043;-51
2022/11/01 06:01:08;;;;;;;4.78;1.50;;;13.50;99.90;;;;;;5138768;27;20051;-53
2022/11/01 06:03:34;;;;;;;8.07;1.60;;;13.50;99.90;;;;;;5139197;27;20055;-45
2022/11/01 06:06:00;;;;;;;2.92;1.40;;;13.40;99.90;;;;;;5134688;27;20494;-50
2022/11/01 06:08:26;;;;;;;10.18;1.58;;;13.40;99.90;;;;;;5132282;27;20081;-49
2022/11/01 06:10:52;;;;;;;4.18;1.30;;;13.40;99.90;;;;;;5116596;27;20440;-47
2022/11/01 06:13:18;;;;;;;6.53;1.50;;;13.30;99.90;;;;;;5119892;27;20051;-51
2022/11/01 06:15:44;;;;;;;7.82;1.90;;;13.30;99.90;;;;;;5138645;27;20085;-46
2022/11/01 06:18:10;;;;;;;8.13;2.80;;;13.20;99.90;;;;;;5139117;27;20125;-48
2022/11/01 06:20:37;;;;;;;4.35;1.45;;;13.10;99.90;;;;;;5120394;27;20408;-51
2022/11/01 06:23:09;;;;;;;7.50;1.45;;;13.10;99.90;;;;;;5103630;27;20057;-49
2022/11/01 06:25:35;;;;;;;8.82;2.40;;;13.00;99.90;;;;;;5138472;27;20190;-47
2022/11/01 06:28:02;;;;;;;5.40;1.48;;;12.90;99.90;;;;;;5138689;27;20035;-52
2022/11/01 06:30:27;;;;;;;10.93;2.00;;;12.90;99.90;;;;;;5137764;27;20486;-44
2022/11/01 06:32:59;;;;;;;7.35;1.83;;;12.80;99.90;;;;;;5138216;27;20050;-46
2022/11/01 06:35:26;;;;;;;7.72;2.15;;;12.90;99.90;;;;;;5138140;27;20061;-51
2022/11/01 06:37:53;;;;;;;11.55;2.05;;;12.80;99.90;;;;;;5138743;27;20038;-48
2022/11/01 06:40:18;;;;;;;7.82;2.28;;;12.80;99.90;;;;;;5119416;27;20052;-50
2022/11/01 06:42:44;;;;;;;8.43;3.17;;;12.80;99.90;;;;;;5138473;27;20114;-44
2022/11/01 06:45:10;;;;;;;28.58;3.30;;;12.90;99.90;;;;;;5118448;27;20046;-46
2022/11/01 06:47:35;;;;;;;9.75;2.58;;;12.90;99.90;;;;;;5137874;27;20046;-46
2022/11/01 06:50:02;;;;;;;7.47;1.83;;;13.00;99.90;;;;;;5137911;27;20118;-48
2022/11/01 06:52:27;;;;;;;9.57;2.08;;;12.90;99.90;;;;;;5136839;27;20432;-48
2022/11/01 06:54:53;;;;;;;7.90;2.47;;;12.90;99.90;;;;;;5136032;27;20439;-45
2022/11/01 06:57:18;;;;;;;9.10;2.03;;;12.90;99.90;;;;;;5136005;27;20113;-50
2022/11/01 06:59:44;;;;;;;15.63;3.17;;;13.00;99.90;;;;;;5137341;27;20051;-50
2022/11/01 07:02:10;;;;;;;12.48;2.67;;;13.00;99.90;;;;;;5136731;27;20130;-47
2022/11/01 07:04:36;;;;;;;11.70;2.35;;;12.90;99.90;;;;;;5134830;27;20057;-50
2022/11/01 07:07:02;;;;;;;10.70;2.10;;;12.90;99.90;;;;;;5138114;27;20134;-49
2022/11/01 07:09:28;;;;;;;11.38;2.90;;;13.00;99.90;;;;;;5134400;27;20042;-50
2022/11/01 07:11:53;;;;;;;14.25;3.38;;;13.00;99.90;;;;;;5136961;27;20527;-43
2022/11/01 07:14:19;;;;;;;10.90;3.10;;;13.00;99.90;;;;;;5136490;27;20039;-52
2022/11/01 07:16:45;;;;;;;12.43;2.92;;;13.00;99.90;;;;;;5136695;27;20691;-48
2022/11/01 07:19:10;;;;;;;11.68;2.78;;;12.90;99.90;;;;;;5137462;27;20126;-52
2022/11/01 07:21:37;;;;;;;13.38;3.05;;;13.00;99.90;;;;;;5137264;27;20074;-45
2022/11/01 07:24:03;;;;;;;14.25;3.78;;;13.10;99.90;;;;;;5136884;27;20077;-48
2022/11/01 07:26:28;;;;;;;9.40;3.08;;;13.20;99.90;;;;;;5136776;27;20138;-49
2022/11/01 07:28:54;;;;;;;12.57;2.65;;;13.20;99.90;;;;;;5137013;27;20046;-44
2022/11/01 07:31:20;;;;;;;10.85;2.67;;;13.30;99.90;;;;;;5136090;27;20050;-51
2022/11/01 07:33:45;;;;;;;13.13;4.35;;;13.30;99.90;;;;;;5136370;27;20107;-53
2022/11/01 07:36:11;;;;;;;12.23;2.97;;;13.40;99.90;;;;;;5136906;27;20050;-47
2022/11/01 07:38:37;;;;;;;13.85;3.08;;;13.50;99.90;;;;;;5137172;27;20444;-48
2022/11/01 07:41:04;;;;;;;11.95;2.35;;;13.50;99.90;;;;;;5118963;27;20069;-50
2022/11/01 07:43:29;;;;;;;10.82;2.70;;;13.60;99.90;;;;;;5137083;27;20086;-50
2022/11/01 07:45:59;;;;;;;11.63;2.80;;;13.50;99.90;;;;;;5141981;27;20532;-48
2022/11/01 07:48:25;;;;;;;17.38;3.40;;;13.50;99.90;;;;;;5137362;27;20513;-48
2022/11/01 07:50:55;;;;;;;15.93;3.25;;;13.50;99.90;;;;;;5118284;27;20439;-44
2022/11/01 07:53:20;;;;;;;14.82;3.40;;;13.40;99.90;;;;;;5136755;27;20129;-48
2022/11/01 07:55:46;;;;;;;10.65;2.60;;;13.50;99.90;;;;;;5118254;27;20058;-54
2022/11/01 07:58:12;;;;;;;13.95;3.50;;;13.40;99.90;;;;;;5136986;27;20080;-49
2022/11/01 08:00:39;;;;;;;16.90;4.20;;;13.40;99.90;;;;;;5136480;27;20070;-55
2022/11/01 08:03:11;;;;;;;16.70;3.67;;;13.50;99.90;;;;;;5118785;27;20093;-48
2022/11/01 08:05:36;;;;;;;18.05;3.20;;;13.50;99.90;;;;;;5114152;27;20106;-46
2022/11/01 08:08:02;;;;;;;18.67;4.13;;;13.60;99.90;;;;;;5133501;27;20396;-50
2022/11/01 08:10:29;;;;;;;15.73;3.40;;;13.50;99.90;;;;;;5129500;27;20064;-48
2022/11/01 08:13:01;;;;;;;15.60;3.67;;;13.50;99.90;;;;;;5136759;27;20492;-51
2022/11/01 08:15:26;;;;;;;17.67;4.15;;;13.50;99.90;;;;;;5131106;27;20053;-49
2022/11/01 08:17:55;;;;;;;14.45;3.08;;;13.40;99.90;;;;;;5127947;27;20042;-48
2022/11/01 08:20:20;;;;;;;13.50;3.33;;;13.40;99.90;;;;;;5134885;27;20467;-47
2022/11/01 08:22:46;;;;;;;16.90;4.50;;;13.40;99.90;;;;;;5117682;27;20055;-51
2022/11/01 08:25:12;;;;;;;16.50;3.90;;;13.40;99.90;;;;;;5116078;27;20054;-51
2022/11/01 08:27:38;;;;;;;16.60;4.28;;;13.40;99.90;;;;;;5136612;27;20043;-55
2022/11/01 08:30:04;;;;;;;18.63;3.63;;;13.40;99.90;;;;;;5118101;27;20090;-47
2022/11/01 08:32:29;;;;;;;18.77;3.85;;;13.40;99.90;;;;;;5137061;27;20057;-46
2022/11/01 08:34:55;;;;;;;14.90;3.38;;;13.40;99.90;;;;;;5116657;27;20055;-53
2022/11/01 08:37:21;;;;;;;20.33;3.78;;;13.40;99.90;;;;;;5137197;27;20050;-48
2022/11/01 08:39:46;;;;;;;12.82;3.45;;;13.40;99.90;;;;;;5136659;27;20038;-50
2022/11/01 08:42:12;;;;;;;21.52;4.35;;;13.50;99.90;;;;;;5136184;27;20043;-47
2022/11/01 08:44:37;;;;;;;12.73;3.15;;;13.40;99.90;;;;;;5135705;27;20087;-56
2022/11/01 08:47:03;;;;;;;20.42;4.82;;;13.50;99.90;;;;;;5141187;27;20087;-48
2022/11/01 08:49:29;;;;;;;17.17;4.55;;;13.50;99.90;;;;;;5121994;27;20121;-48
2022/11/01 08:51:55;;;;;;;19.80;4.32;;;13.50;99.90;;;;;;5122140;27;20055;-45
2022/11/01 08:54:20;;;;;;;23.13;4.32;;;13.60;99.90;;;;;;5140003;27;20407;-53
2022/11/01 08:56:46;;;;;;;16.60;4.43;;;13.60;99.90;;;;;;5122951;27;20050;-49
2022/11/01 08:59:12;;;;;;;18.00;4.30;;;13.70;99.90;;;;;;5140683;27;20042;-54
2022/11/01 09:01:37;;;;;;;19.00;4.03;;;13.80;99.90;;;;;;5120800;27;20107;-55
2022/11/01 09:04:04;;;;;;;18.65;4.30;;;13.80;99.90;;;;;;5140314;27;20047;-51
2022/11/01 09:06:30;;;;;;;21.02;4.55;;;13.90;99.90;;;;;;5137655;27;20089;-45
2022/11/01 09:08:56;;;;;;;18.23;5.38;;;13.90;99.90;;;;;;5129551;27;20560;-52
2022/11/01 09:11:23;;;;;;;18.95;4.25;;;14.00;99.90;;;;;;5121755;27;20485;-52
2022/11/01 09:13:49;;;;;;;12.90;3.38;;;14.00;99.90;;;;;;5140162;27;20560;-50
2022/11/01 09:16:15;;;;;;;22.58;5.32;;;14.00;99.90;;;;;;5139879;27;20046;-51
2022/11/01 09:18:41;;;;;;;22.75;5.10;;;13.90;99.90;;;;;;5140131;27;20566;-45
2022/11/01 09:21:07;;;;;;;16.67;3.83;;;13.90;99.90;;;;;;5140245;27;20047;-52
2022/11/01 09:23:34;;;;;;;24.48;5.03;;;14.00;99.90;;;;;;5140455;27;20043;-52
2022/11/01 09:26:09;;;;;;;18.77;4.35;;;14.00;99.90;;;;;;5139951;27;20046;-43
2022/11/01 09:28:35;;;;;;;19.52;4.32;;;14.10;99.90;;;;;;5140902;27;20078;-47
2022/11/01 09:31:07;;;;;;;14.95;4.40;;;14.20;99.90;;;;;;5139900;27;20047;-49
2022/11/01 09:33:33;;;;;;;18.13;4.45;;;14.20;99.90;;;;;;5141115;27;20349;-51
2022/11/01 09:35:59;;;;;;;22.48;4.63;;;14.20;99.90;;;;;;5139439;27;20046;-56
2022/11/01 09:38:25;;;;;;;24.50;4.93;;;14.30;99.90;;;;;;5139679;27;20043;-44
2022/11/01 09:41:09;;;;;;;19.15;4.30;;;14.30;99.90;;;;;;5139307;27;20050;-50
2022/11/01 09:43:38;;;;;;;24.55;5.70;;;14.30;99.90;;;;;;5140217;27;20555;-44
2022/11/01 09:46:06;;;;;;;20.23;4.95;;;14.30;99.90;;;;;;5139698;27;20057;-44
2022/11/01 09:48:35;;;;;;;15.95;3.97;;;14.30;99.90;;;;;;5139885;27;20055;-52
2022/11/01 09:51:06;;;;;;;16.58;4.55;;;14.30;99.90;;;;;;5138975;27;20074;-49
2022/11/01 09:53:32;;;;;;;21.88;4.82;;;14.40;99.90;;;;;;5137972;27;20046;-49
2022/11/01 09:56:09;;;;;;;21.73;4.40;;;14.40;99.90;;;;;;5139466;27;20649;-53
2022/11/01 09:59:01;;;;;;;17.08;4.40;;;14.40;99.90;;;;;;5137483;27;20419;-45
2022/11/01 10:01:51;;;;;;;19.15;4.80;;;14.40;99.90;;;;;;5120275;27;20074;-49
2022/11/01 10:04:45;;;;;;;21.70;4.88;;;14.40;99.90;;;;;;5136447;27;20137;-45
2022/11/01 10:07:16;;;;;;;22.52;5.70;;;14.40;99.90;;;;;;5120658;27;20068;-47
2022/11/01 10:09:59;;;;;;;22.25;5.30;;;14.40;99.90;;;;;;5124340;27;20487;-50
2022/11/01 10:12:58;;;;;;;17.42;3.83;;;14.40;99.90;;;;;;5128244;27;20053;-46
2022/11/01 10:15:54;;;;;;;20.08;4.88;;;14.50;99.90;;;;;;5132094;27;20376;-49
2022/11/01 10:19:10;;;;;;;29.60;5.70;;;14.60;99.90;;;;;;5125529;27;20051;-45
2022/11/01 10:21:52;;;;;;;18.58;3.60;;;14.50;99.90;;;;;;5002201;28;20053;-57
2022/11/01 10:24:39;;;;;;;18.98;3.78;;;14.40;99.90;;;;;;5016923;28;20172;-48
2022/11/01 10:27:24;;;;;;;22.23;4.45;;;14.50;99.90;;;;;;5015423;28;20127;-50
2022/11/01 10:30:14;;;;;;;21.35;4.40;;;14.50;99.90;;;;;;5012957;28;20405;-50
2022/11/01 10:32:51;;;;;;;20.67;3.95;;;14.40;99.90;;;;;;5013470;28;20135;-45
2022/11/01 10:35:31;;;;;;;21.35;4.35;;;14.40;99.90;;;;;;5014441;28;20058;-51
2022/11/01 10:38:21;;;;;;;19.90;5.15;;;14.40;99.90;;;;;;5030365;28;20487;-53
2022/11/01 10:40:54;;;;;;;21.25;4.32;;;14.40;99.90;;;;;;5026160;28;20612;-52
2022/11/01 10:43:21;;;;;;;22.30;4.93;;;14.30;99.90;;;;;;5015609;28;20088;-51
2022/11/01 10:45:50;;;;;;;19.52;4.38;;;14.20;99.90;;;;;;5015525;28;20541;-48
2022/11/01 10:48:28;;;;;;;19.15;4.45;;;14.30;99.90;;;;;;5013853;28;20045;-55
2022/11/01 10:50:59;;;;;;;16.55;3.65;;;14.30;99.90;;;;;;5013024;28;20057;-45
2022/11/01 10:53:29;;;;;;;16.02;4.55;;;14.30;99.90;;;;;;5136991;27;20192;-50
2022/11/01 10:55:58;;;;;;;13.15;4.53;;;14.30;99.90;;;;;;5138077;27;20545;-49
2022/11/01 10:58:36;;;;;;;17.15;4.15;;;14.40;99.90;;;;;;5119921;27;20097;-48
2022/11/01 11:01:07;;;;;;;19.77;4.57;;;14.40;99.90;;;;;;5118907;27;20054;-52
2022/11/01 11:03:33;;;;;;;19.55;3.97;;;14.40;99.90;;;;;;5119325;27;20062;-53
2022/11/01 11:06:06;;;;;;;17.50;4.47;;;14.50;99.90;;;;;;5114989;27;20039;-49
2022/11/01 11:08:32;;;;;;;14.82;4.60;;;14.50;99.90;;;;;;5129002;27;20570;-49
2022/11/01 11:11:06;;;;;;;13.85;3.83;;;14.60;99.90;;;;;;5123907;27;20330;-47
2022/11/01 11:13:33;;;;;;;28.60;5.03;;;14.70;99.90;;;;;;5137967;27;20497;-51
2022/11/01 11:16:05;;;;;;;21.95;5.60;;;14.80;99.90;;;;;;5136958;27;20051;-49
2022/11/01 11:18:30;;;;;;;23.85;5.03;;;14.80;99.90;;;;;;5137645;27;20122;-48
2022/11/01 11:21:04;;;;;;;19.55;4.30;;;14.70;99.90;;;;;;5136703;27;20110;-50
2022/11/01 11:23:33;;;;;;;14.63;3.50;;;14.70;99.90;;;;;;5136851;27;20038;-46
2022/11/01 11:26:24;;;;;;;18.20;3.45;;;14.70;99.90;;;;;;5137063;27;20061;-50
2022/11/01 11:28:53;;;;;;;19.80;4.05;;;14.60;99.90;;;;;;5136331;27;20085;-48
2022/11/01 11:31:36;;;;;;;13.40;3.67;;;14.60;99.90;;;;;;5137048;27;20118;-48
2022/11/01 11:34:24;;;;;;;14.95;3.80;;;14.70;99.90;;;;;;5137178;27;20073;-46
2022/11/01 11:36:53;;;;;;;19.65;3.83;;;14.70;99.90;;;;;;5136754;27;20053;-51
2022/11/01 11:39:36;;;;;;;15.60;3.60;;;14.80;99.90;;;;;;5121226;27;20039;-51
2022/11/01 11:42:24;;;;;;;20.90;4.57;;;14.80;99.90;;;;;;5115157;27;20058;-46
2022/11/01 11:44:54;;;;;;;16.85;4.30;;;14.80;99.90;;;;;;5116497;27;20043;-44
2022/11/01 11:47:26;;;;;;;15.48;3.55;;;14.80;99.90;;;;;;5134356;27;20057;-46
2022/11/01 11:49:55;;;;;;;15.52;3.58;;;14.90;99.90;;;;;;5136143;27;20055;-52
2022/11/01 11:52:26;;;;;;;16.40;3.97;;;14.90;99.90;;;;;;5134896;27;20057;-48
2022/11/01 11:54:51;;;;;;;18.02;4.53;;;14.90;99.90;;;;;;5135663;27;20066;-49
2022/11/01 11:57:25;;;;;;;12.60;3.05;;;14.90;99.90;;;;;;5135119;27;20117;-51
2022/11/01 11:59:57;;;;;;;12.68;3.63;;;14.90;99.90;;;;;;5133072;27;20124;-50
2022/11/01 12:02:28;;;;;;;21.00;4.40;;;14.90;99.90;;;;;;5136157;27;20110;-48
2022/11/01 12:05:04;;;;;;;15.55;3.42;;;15.00;99.90;;;;;;5135003;27;20127;-51
2022/11/01 12:07:37;;;;;;;16.45;3.75;;;15.00;99.90;;;;;;5136335;27;20062;-49
2022/11/01 12:10:05;;;;;;;22.58;4.85;;;15.10;99.90;;;;;;5126552;27;20219;-52
2022/11/01 12:12:34;;;;;;;15.73;3.70;;;15.10;99.90;;;;;;5118110;27;20653;-50
2022/11/01 12:15:02;;;;;;;14.63;3.35;;;15.20;99.90;;;;;;5136716;27;20505;-51
2022/11/01 12:17:42;;;;;;;17.10;3.80;;;15.10;99.90;;;;;;5136686;27;20890;-48
2022/11/01 12:20:23;;;;;;;19.88;4.70;;;15.10;99.90;;;;;;5136535;27;20058;-55
2022/11/01 12:23:13;;;;;;;14.52;3.60;;;15.10;99.90;;;;;;5118231;27;20043;-47
2022/11/01 12:25:41;;;;;;;16.27;3.42;;;15.00;99.90;;;;;;5136121;27;20465;-51
2022/11/01 12:28:19;;;;;;;15.73;3.70;;;15.10;99.90;;;;;;5136848;27;20035;-54
2022/11/01 12:30:47;;;;;;;16.15;3.72;;;15.10;99.90;;;;;;5135447;27;20536;-47
2022/11/01 12:33:29;;;;;;;15.75;3.30;;;15.20;99.90;;;;;;5117433;27;20067;-54
2022/11/01 12:35:57;;;;;;;17.92;3.08;;;15.30;99.90;;;;;;5149181;27;20052;-45
2022/11/01 12:38:40;;;;;;;21.83;4.72;;;15.30;99.90;;;;;;5144822;27;20141;-53
2022/11/01 12:41:20;;;;;;;13.48;3.55;;;15.30;99.90;;;;;;5135569;27;20039;-51
2022/11/01 12:43:57;;;;;;;15.93;3.35;;;15.30;99.90;;;;;;5121932;27;20046;-55
2022/11/01 12:46:30;;;;;;;13.07;4.05;;;15.30;99.90;;;;;;5115423;27;20659;-54
2022/11/01 12:49:05;;;;;;;12.60;3.15;;;15.30;99.90;;;;;;5136530;27;20074;-50
2022/11/01 12:51:44;;;;;;;13.20;2.70;;;15.30;99.90;;;;;;5135296;27;20047;-45
2022/11/01 12:54:19;;;;;;;11.18;3.50;;;15.30;99.90;;;;;;5134922;27;20057;-47
2022/11/01 12:56:45;;;;;;;15.30;4.00;;;15.30;99.90;;;;;;5123478;27;20050;-51
2022/11/01 12:59:14;;;;;;;17.63;4.30;;;15.30;99.90;;;;;;5135829;27;20042;-44
2022/11/01 13:02:14;;;;;;;13.85;3.60;;;15.30;99.90;;;;;;5116422;27;20550;-48
2022/11/01 13:05:03;;;;;;;15.52;3.53;;;15.30;99.90;;;;;;5131676;27;20513;-56